createdAt,value
2022-11-25T00:02:59.200Z,100202.88
2022-11-25T00:08:00.905Z,100207.72
2022-11-25T00:13:02.562Z,100209.06
2022-11-25T00:18:04.221Z,100206.00
2022-11-25T00:23:05.773Z,100201.00
2022-11-25T00:28:07.338Z,100210.56
2022-11-25T00:33:08.903Z,100213.63
2022-11-25T00:38:10.473Z,100204.06
2022-11-25T00:43:30.665Z,100209.03
2022-11-25T00:48:32.222Z,100214.56
2022-11-25T00:53:33.778Z,100207.44
2022-11-25T00:58:35.344Z,100213.03
2022-11-25T01:03:37.249Z,100212.19
2022-11-25T01:08:39.003Z,100216.91
2022-11-25T01:13:40.563Z,100212.84
2022-11-25T01:18:42.828Z,100208.28
2022-11-25T01:23:44.630Z,100214.06
2022-11-25T01:28:48.231Z,100217.72
2022-11-25T01:33:59.889Z,100209.47
2022-11-25T01:39:01.556Z,100212.13
2022-11-25T01:44:05.631Z,100213.69
2022-11-25T01:49:10.692Z,100206.81
2022-11-25T01:54:14.341Z,100203.56
2022-11-25T01:59:16.322Z,100208.19
2022-11-25T02:04:19.449Z,100210.22
2022-11-25T02:09:22.583Z,100211.66
2022-11-25T02:14:25.484Z,100218.19
2022-11-25T02:19:45.798Z,100204.22
2022-11-25T02:24:48.954Z,100210.81
2022-11-25T02:29:50.695Z,100205.66
2022-11-25T02:34:52.265Z,100210.97
2022-11-25T02:39:54.888Z,100208.53
2022-11-25T02:44:56.774Z,100201.41
2022-11-25T02:49:59.086Z,100207.34
2022-11-25T02:55:00.671Z,100205.75
2022-11-25T03:00:02.602Z,100206.81
2022-11-25T03:05:05.073Z,100202.88
2022-11-25T03:10:07.070Z,100211.94
2022-11-25T03:15:10.316Z,100199.47
2022-11-25T03:20:15.222Z,100214.94
2022-11-25T03:25:17.538Z,100211.56
2022-11-25T03:30:22.988Z,100214.78
2022-11-25T03:35:27.804Z,100209.47
2022-11-25T03:40:29.416Z,100219.13
2022-11-25T03:45:31.056Z,100217.44
2022-11-25T03:50:35.058Z,100226.16
2022-11-25T03:55:36.690Z,100228.34
2022-11-25T04:00:39.304Z,100228.81
2022-11-25T04:05:41.622Z,100235.69
2022-11-25T04:10:43.244Z,100233.66
2022-11-25T04:15:47.226Z,100233.28
2022-11-25T04:20:50.746Z,100238.00
2022-11-25T04:25:52.591Z,100237.75
2022-11-25T04:31:00.092Z,100235.28
2022-11-25T04:36:02.796Z,100243.25
2022-11-25T04:41:04.497Z,100252.19
2022-11-25T04:46:16.769Z,100247.03
2022-11-25T04:51:22.459Z,100251.53
2022-11-25T04:56:28.071Z,100254.19
2022-11-25T05:01:31.006Z,100248.59
2022-11-25T05:06:42.984Z,100251.38
2022-11-25T05:11:45.007Z,100240.03
2022-11-25T05:16:46.719Z,100242.09
2022-11-25T05:21:48.556Z,100238.50
2022-11-25T05:26:50.269Z,100233.81
2022-11-25T05:31:51.898Z,100236.94
2022-11-25T05:36:53.781Z,100243.19
2022-11-25T05:41:55.848Z,100239.09
2022-11-25T05:46:57.523Z,100237.88
2022-11-25T05:52:01.114Z,100246.69
2022-11-25T05:57:06.899Z,100250.09
2022-11-25T06:02:16.441Z,100251.28
2022-11-25T06:07:18.192Z,100244.03
2022-11-25T06:12:22.797Z,100255.63
2022-11-25T06:17:24.454Z,100252.22
2022-11-25T06:22:34.899Z,100261.28
2022-11-25T06:28:04.475Z,100263.81
2022-11-25T06:32:58.265Z,100277.25
2022-11-25T06:38:00.028Z,100284.94
2022-11-25T06:43:01.607Z,100292.03
2022-11-25T06:48:03.395Z,100289.59
2022-11-25T06:53:04.940Z,100296.38
2022-11-25T06:58:28.331Z,100296.22
2022-11-25T07:03:28.103Z,100302.63
2022-11-25T07:08:33.904Z,100303.94
2022-11-25T07:13:36.101Z,100310.53
2022-11-25T07:18:38.603Z,100324.06
2022-11-25T07:23:41.283Z,100321.41
2022-11-25T07:28:43.609Z,100326.13
2022-11-25T07:33:45.779Z,100331.81
2022-11-25T07:38:47.820Z,100333.72
2022-11-25T07:43:55.399Z,100332.81
2022-11-25T07:49:06.345Z,100338.13
2022-11-25T07:54:11.148Z,100333.53
2022-11-25T07:59:15.172Z,100331.53
2022-11-25T08:04:20.432Z,100340.78
2022-11-25T08:09:24.006Z,100337.38
2022-11-25T08:14:26.525Z,100340.78
2022-11-25T08:19:31.430Z,100339.09
2022-11-25T08:24:33.209Z,100339.84
2022-11-25T08:29:35.280Z,100348.97
2022-11-25T08:34:37.181Z,100345.59
2022-11-25T08:39:55.666Z,100342.59
2022-11-25T08:44:57.835Z,100347.59
2022-11-25T08:49:59.672Z,100346.34
2022-11-25T08:55:01.322Z,100350.34
2022-11-25T09:00:05.772Z,100355.16
2022-11-25T09:05:07.684Z,100350.25
2022-11-25T09:10:12.654Z,100356.84
2022-11-25T09:15:14.230Z,100350.44
2022-11-25T09:20:15.867Z,100356.91
2022-11-25T09:25:17.455Z,100347.38
2022-11-25T09:30:19.130Z,100337.47
2022-11-25T09:35:21.249Z,100344.44
2022-11-25T09:40:54.092Z,100347.88
2022-11-25T09:46:42.640Z,100345.69
2022-11-25T09:52:10.531Z,100339.19
2022-11-25T09:57:24.100Z,100350.19
2022-11-25T10:02:35.516Z,100352.75
2022-11-25T10:07:41.418Z,100354.00
2022-11-25T10:12:45.345Z,100350.13
2022-11-25T10:17:53.269Z,100342.16
2022-11-25T10:22:57.856Z,100342.16
2022-11-25T10:28:05.974Z,100350.72
2022-11-25T10:33:33.463Z,100341.75
2022-11-25T10:38:45.450Z,100335.34
2022-11-25T10:43:47.693Z,100335.81
2022-11-25T10:49:35.280Z,100338.69
2022-11-25T10:54:36.889Z,100325.63
2022-11-25T10:59:40.056Z,100330.88
2022-11-25T11:05:10.383Z,100330.78
2022-11-25T11:10:14.988Z,100325.25
2022-11-25T11:15:23.660Z,100323.34
2022-11-25T11:20:29.470Z,100318.66
2022-11-25T11:25:33.853Z,100309.66
2022-11-25T11:30:35.425Z,100311.81
2022-11-25T11:35:55.065Z,100307.91
2022-11-25T11:41:16.552Z,100304.00
2022-11-25T11:46:47.322Z,100303.09
2022-11-25T11:52:10.817Z,100302.59
2022-11-25T11:57:27.454Z,100302.63
2022-11-25T12:02:32.241Z,100304.50
2022-11-25T12:08:07.955Z,100294.28
2022-11-25T12:13:35.235Z,100294.03
2022-11-25T12:19:09.088Z,100289.84
2022-11-25T12:24:27.346Z,100290.47
2022-11-25T12:29:53.999Z,100288.25
2022-11-25T12:35:19.005Z,100281.22
2022-11-25T12:40:27.034Z,100278.84
2022-11-25T12:45:28.764Z,100283.34
2022-11-25T12:50:35.795Z,100281.69
2022-11-25T12:55:39.556Z,100278.31
2022-11-25T13:00:42.735Z,100289.03
2022-11-25T13:06:10.661Z,100294.97
2022-11-25T13:11:12.592Z,100296.25
2022-11-25T13:16:14.905Z,100296.94
2022-11-25T13:21:18.500Z,100303.97
2022-11-25T13:26:33.952Z,100311.69
2022-11-25T13:31:59.420Z,100307.06
2022-11-25T13:37:12.596Z,100309.00
2022-11-25T13:42:21.501Z,100310.69
2022-11-25T13:47:33.061Z,100318.03
2022-11-25T13:52:38.231Z,100316.56
2022-11-25T13:57:40.766Z,100323.16
2022-11-25T14:02:47.044Z,100324.94
2022-11-25T14:08:10.527Z,100326.13
2022-11-25T14:13:20.985Z,100329.81
2022-11-25T14:24:31.150Z,100336.13
2022-11-25T14:29:32.628Z,100351.88
2022-11-25T14:34:39.878Z,100355.72
2022-11-25T14:39:49.441Z,100370.84
2022-11-25T14:44:53.170Z,100371.50
2022-11-25T14:50:18.978Z,100385.00
2022-11-25T14:55:27.377Z,100389.66
2022-11-25T15:00:28.909Z,100399.53
2022-11-25T15:05:34.971Z,100405.72
2022-11-25T15:10:40.441Z,100400.13
2022-11-25T15:15:45.134Z,100396.72
2022-11-25T15:20:48.958Z,100404.72
2022-11-25T15:25:52.274Z,100402.19
2022-11-25T15:31:01.168Z,100412.72
2022-11-25T15:36:03.016Z,100416.66
2022-11-25T15:41:06.160Z,100430.00
2022-11-25T15:46:08.901Z,100437.84
2022-11-25T15:51:38.649Z,100440.16
2022-11-25T15:56:45.881Z,100440.72
2022-11-25T16:01:47.609Z,100447.66
2022-11-25T16:06:53.818Z,100435.56
2022-11-25T16:12:04.776Z,100445.66
2022-11-25T16:17:10.888Z,100449.38
2022-11-25T16:22:16.496Z,100462.34
2022-11-25T16:27:28.281Z,100472.59
2022-11-25T16:32:31.359Z,100472.38
2022-11-25T16:37:32.944Z,100472.97
2022-11-25T16:42:34.527Z,100480.47
2022-11-25T16:47:36.119Z,100479.13
2022-11-25T16:52:37.716Z,100480.28
2022-11-25T16:57:40.722Z,100475.50
2022-11-25T17:02:42.519Z,100475.72
2022-11-25T17:07:44.288Z,100474.28
2022-11-25T17:12:46.690Z,100474.41
2022-11-25T17:17:48.729Z,100478.41
2022-11-25T17:22:51.597Z,100486.88
2022-11-25T17:27:53.897Z,100483.41
2022-11-25T17:33:04.168Z,100495.75
2022-11-25T17:38:20.428Z,100505.19
2022-11-25T17:43:22.130Z,100511.84
2022-11-25T17:48:24.073Z,100512.31
2022-11-25T17:53:25.597Z,100509.28
2022-11-25T17:58:27.146Z,100511.72
2022-11-25T18:03:28.694Z,100507.75
2022-11-25T18:08:30.279Z,100517.53
2022-11-25T18:13:36.384Z,100525.63
2022-11-25T18:18:38.218Z,100526.84
2022-11-25T18:23:39.783Z,100537.88
2022-11-25T18:28:41.388Z,100534.09
2022-11-25T18:33:43.310Z,100546.81
2022-11-25T18:38:45.537Z,100552.13
2022-11-25T18:43:47.226Z,100545.84
2022-11-25T18:48:48.780Z,100551.78
2022-11-25T18:53:50.337Z,100566.31
2022-11-25T18:58:51.977Z,100567.84
2022-11-25T19:03:55.280Z,100579.59
2022-11-25T19:08:56.847Z,100583.25
2022-11-25T19:14:03.687Z,100587.84
2022-11-25T19:19:05.362Z,100585.66
2022-11-25T19:24:12.941Z,100592.91
2022-11-25T19:29:23.695Z,100595.22
2022-11-25T19:34:38.325Z,100602.09
2022-11-25T19:39:40.095Z,100617.84
2022-11-25T19:44:42.669Z,100619.53
2022-11-25T19:49:44.611Z,100622.56
2022-11-25T19:54:46.377Z,100632.34
2022-11-25T19:59:48.312Z,100630.06
2022-11-25T20:04:53.696Z,100633.69
2022-11-25T20:10:14.666Z,100640.81
2022-11-25T20:15:16.705Z,100648.91
2022-11-25T20:20:31.783Z,100654.25
2022-11-25T20:25:41.633Z,100666.97
2022-11-25T20:30:43.287Z,100676.66
2022-11-25T20:35:46.701Z,100684.63
2022-11-25T20:40:50.293Z,100686.69
2022-11-25T20:45:51.869Z,100692.63
2022-11-25T20:50:53.696Z,100691.09
2022-11-25T20:55:55.510Z,100696.09
2022-11-25T21:00:58.080Z,100704.41
2022-11-25T21:06:00.106Z,100713.81
2022-11-25T21:11:01.855Z,100719.47
2022-11-25T21:16:03.515Z,100715.84
2022-11-25T21:21:14.818Z,100725.88
2022-11-25T21:26:24.031Z,100731.34
2022-11-25T21:31:26.324Z,100735.13
2022-11-25T21:36:29.622Z,100743.22
2022-11-25T21:41:31.296Z,100745.16
2022-11-25T21:46:33.124Z,100751.59
2022-11-25T21:51:34.727Z,100754.16
2022-11-25T21:56:37.652Z,100762.34
2022-11-25T22:01:39.337Z,100775.16
2022-11-25T22:06:41.009Z,100773.00
2022-11-25T22:11:47.926Z,100774.94
2022-11-25T22:16:49.703Z,100774.69
2022-11-25T22:21:51.332Z,100778.78
2022-11-25T22:26:57.704Z,100786.78
2022-11-25T22:31:59.866Z,100792.38
2022-11-25T22:37:01.573Z,100793.59
2022-11-25T22:42:06.826Z,100803.31
2022-11-25T22:47:38.359Z,100799.91
2022-11-25T22:52:39.948Z,100815.72
2022-11-25T22:57:41.540Z,100815.56
2022-11-25T23:02:43.123Z,100820.91
2022-11-25T23:07:44.771Z,100817.41
2022-11-25T23:12:46.812Z,100825.19
2022-11-25T23:17:49.763Z,100830.38
2022-11-25T23:22:51.344Z,100827.72
2022-11-25T23:27:53.050Z,100831.72
2022-11-25T23:32:54.667Z,100835.34
2022-11-25T23:37:57.369Z,100833.44
2022-11-25T23:42:58.997Z,100837.19
2022-11-25T23:48:00.579Z,100846.63
2022-11-25T23:53:05.298Z,100847.50
2022-11-25T23:58:14.586Z,100849.19
